Bluewell, West Virginia
Current Conditions -  °F | °C
As of 3:52 AM on Friday 28 Nov 2014 (Local Time) from KBLF Reporting Station
Overcast Overcast  
Wind Chill: 15°   Ceiling: 3100
Heat Index: 24°   Visibility: 10mi
Dew Point: 15°   Wind: 8mph
Humidity: 69%   Direction: 310°NW
Pressure: 30.22"   Gusts: NA
Location:  37.2994°N, 81.226°W
Report Text: KBLF 280852Z AUTO 31007KT 10SM FEW019 OVC031 M04/M09 A3022 RMK AO2 SLP259 60000 T10441094 50005 $
Loading
Personal Weather Stations






























Interactive Weather Map New forecast layout! Learn more

10-Day Weather Forecast

Advertisements
Track Severe Weather on mobile